INFORMACIÓN METAR y TAF
METAR FOR LESB
ADDS - METARS form results

(0224 UTC 22 February 2019)
Data provider http://aviationweather.gov/metar/data/
 
METAR text: LESB 220200Z AUTO 33003KT 250V010 CAVOK 05/04 Q1032
Conditions at: LESB (MALLORCA SON BON, ES) observed 0200 UTC 22 February 2019
Temperature: 5.0°C (41°F)
Dewpoint: 4.0°C (39°F) [RH = 93%]
Pressure (altimeter): 30.47 inches Hg (1032.0 mb)
Winds: from the NNW (330 degrees) at 3 MPH (3 knots; 1.5 m/s)
Visibility: 6 or more miles (10+ km)
Ceiling: ceiling and visibility are OK
Clouds: unknown
Weather: no significant weather observed at this time

METAR text: LESB 220130Z AUTO 33003KT 290V010 CAVOK 06/04 Q1032
Conditions at: LESB (MALLORCA SON BON, ES) observed 0130 UTC 22 February 2019
Temperature: 6.0°C (43°F)
Dewpoint: 4.0°C (39°F) [RH = 87%]
Pressure (altimeter): 30.47 inches Hg (1032.0 mb)
Winds: from the NNW (330 degrees) at 3 MPH (3 knots; 1.5 m/s)
Visibility: 6 or more miles (10+ km)
Ceiling: ceiling and visibility are OK
Clouds: unknown
Weather: no significant weather observed at this time

 MAPA DE AEROPUERTO

 INFORMACIÓN DE PISTA
Pista 06 Longitud 3281 ft Ancho 72 ft
Elevación 0 ft Umbral desplazado 0 ft Rumbo de pista 49
Pista 24 Longitud 3281 ft Ancho 72 ft
Elevación 0 ft Umbral desplazado 0 ft Rumbo de pista 229

 FRECUANCIAS DEL AEROPUERTO
Tipo APP Nombre PALMA APP Frecuencia 119.4 MHZ
Tipo OPS Nombre PALMA OPS Frecuencia 130.25 MHZ
Tipo TWR Nombre PALMA TWR Frecuencia 118.3 MHZ

 RADIO AYUDAS DEL AEROPUERTO



Powered by Virtual Airlines Manager [v2.6.2]